createdAt,value
2023-02-13T00:01:40.900Z,96.12
2023-02-13T00:06:42.351Z,96.07
2023-02-13T00:11:43.776Z,96.21
2023-02-13T00:16:45.204Z,96.69
2023-02-13T00:21:46.647Z,96.52
2023-02-13T00:26:48.109Z,96.46
2023-02-13T00:31:49.866Z,96.19
2023-02-13T00:36:51.333Z,96.32
2023-02-13T00:41:52.755Z,96.55
2023-02-13T00:46:54.331Z,96.72
2023-02-13T00:51:55.751Z,96.74
2023-02-13T00:56:57.151Z,96.86
2023-02-13T01:01:58.608Z,96.46
2023-02-13T01:07:00.160Z,96.94
2023-02-13T01:12:01.685Z,96.59
2023-02-13T01:17:03.154Z,96.93
2023-02-13T01:22:04.634Z,97.06
2023-02-13T01:27:06.143Z,96.55
2023-02-13T01:32:07.651Z,96.74
2023-02-13T01:37:09.099Z,97.27
2023-02-13T01:42:17.429Z,96.90
2023-02-13T01:47:45.280Z,96.47
2023-02-13T01:53:20.224Z,96.88
2023-02-13T01:58:27.974Z,96.52
2023-02-13T02:03:41.619Z,96.85
2023-02-13T02:08:49.669Z,96.64
2023-02-13T02:13:57.390Z,96.31
2023-02-13T02:19:15.875Z,96.23
2023-02-13T02:24:39.101Z,95.98
2023-02-13T02:30:18.548Z,96.67
2023-02-13T02:35:45.532Z,96.32
2023-02-13T02:41:41.388Z,96.09
2023-02-13T02:47:27.392Z,96.27
2023-02-13T02:52:53.537Z,96.29
2023-02-13T02:58:37.914Z,96.13
2023-02-13T03:03:58.586Z,96.27
2023-02-13T03:09:22.321Z,95.95
2023-02-13T03:14:27.138Z,95.85
2023-02-13T03:19:59.065Z,95.91
2023-02-13T03:25:06.629Z,96.06
2023-02-13T03:30:24.696Z,95.89
2023-02-13T03:35:56.760Z,96.09
2023-02-13T03:41:20.642Z,96.07
2023-02-13T03:46:24.408Z,95.91
2023-02-13T03:51:36.191Z,95.59
2023-02-13T03:57:00.903Z,95.99
2023-02-13T04:02:13.464Z,95.62
2023-02-13T04:07:29.248Z,95.70
2023-02-13T04:12:52.414Z,95.58
2023-02-13T04:18:04.931Z,95.88
2023-02-13T04:23:08.734Z,95.69
2023-02-13T04:28:10.404Z,95.22
2023-02-13T04:33:11.921Z,95.76
2023-02-13T04:38:13.343Z,95.50
2023-02-13T04:43:14.760Z,95.72
2023-02-13T04:48:16.234Z,95.93
2023-02-13T04:53:17.637Z,96.04
2023-02-13T04:58:19.396Z,95.31
2023-02-13T05:03:20.871Z,95.62
2023-02-13T05:08:22.284Z,95.52
2023-02-13T05:13:23.832Z,95.22
2023-02-13T05:18:25.376Z,95.68
2023-02-13T05:23:26.872Z,95.61
2023-02-13T05:28:47.393Z,96.37
2023-02-13T05:33:48.876Z,95.40
2023-02-13T05:38:50.318Z,95.44
2023-02-13T05:43:51.722Z,95.25
2023-02-13T05:48:53.214Z,95.60
2023-02-13T05:53:54.683Z,95.60
2023-02-13T05:58:56.660Z,95.74
2023-02-13T06:03:59.618Z,95.66
2023-02-13T06:09:01.923Z,95.87
2023-02-13T06:14:03.415Z,95.51
2023-02-13T06:19:04.921Z,95.24
2023-02-13T06:24:07.974Z,95.86
2023-02-13T06:29:09.375Z,95.43
2023-02-13T06:34:11.044Z,95.48
2023-02-13T06:39:12.609Z,96.01
2023-02-13T06:44:14.140Z,95.48
2023-02-13T06:49:15.722Z,95.27
2023-02-13T06:54:17.145Z,95.65
2023-02-13T06:59:18.571Z,95.42
2023-02-13T07:04:19.976Z,95.54
2023-02-13T07:09:21.381Z,95.34
2023-02-13T07:14:22.879Z,95.86
2023-02-13T07:19:24.367Z,95.21
2023-02-13T07:24:25.782Z,95.66
2023-02-13T07:29:27.646Z,95.32
2023-02-13T07:34:29.208Z,95.47
2023-02-13T07:39:31.641Z,95.60
2023-02-13T07:44:33.261Z,95.57
2023-02-13T07:49:36.841Z,96.30
2023-02-13T07:54:46.989Z,95.98
2023-02-13T07:59:48.408Z,95.66
2023-02-13T08:04:49.881Z,95.80
2023-02-13T08:10:09.875Z,95.99
2023-02-13T08:15:15.669Z,96.04
2023-02-13T08:20:17.264Z,95.75
2023-02-13T08:25:19.598Z,95.51
2023-02-13T08:30:21.177Z,96.13
2023-02-13T08:35:26.628Z,96.27
2023-02-13T08:40:28.191Z,96.33
2023-02-13T08:45:30.814Z,97.02
2023-02-13T08:50:32.357Z,96.52
2023-02-13T08:55:34.203Z,96.41
2023-02-13T09:00:35.855Z,96.64
2023-02-13T09:05:37.314Z,97.07
2023-02-13T09:10:39.344Z,96.26
2023-02-13T09:15:41.704Z,96.52
2023-02-13T09:20:43.126Z,96.58
2023-02-13T09:25:44.550Z,96.47
2023-02-13T09:30:46.175Z,96.90
2023-02-13T09:35:47.747Z,96.32
2023-02-13T09:40:53.836Z,96.65
2023-02-13T09:45:59.954Z,96.25
2023-02-13T09:51:01.773Z,96.72
2023-02-13T09:56:35.730Z,96.60
2023-02-13T10:01:44.020Z,97.25
2023-02-13T10:06:50.295Z,96.92
2023-02-13T10:12:13.668Z,97.26
2023-02-13T10:17:24.514Z,97.25
2023-02-13T10:22:33.044Z,97.30
2023-02-13T10:27:38.934Z,97.78
2023-02-13T10:33:18.738Z,97.29
2023-02-13T10:38:22.199Z,97.33
2023-02-13T10:43:29.179Z,96.50
2023-02-13T10:49:08.367Z,96.52
2023-02-13T10:54:24.820Z,96.53
2023-02-13T10:59:44.826Z,97.17
2023-02-13T11:04:46.663Z,97.19
2023-02-13T11:09:51.042Z,97.11
2023-02-13T11:14:58.638Z,97.87
2023-02-13T11:20:02.856Z,96.49
2023-02-13T11:25:19.913Z,96.83
2023-02-13T11:30:36.280Z,95.64
2023-02-13T11:35:38.063Z,96.34
2023-02-13T11:40:40.817Z,95.98
2023-02-13T11:45:42.250Z,96.58
2023-02-13T11:50:46.121Z,97.12
2023-02-13T11:56:01.548Z,97.02
2023-02-13T12:01:28.302Z,97.58
2023-02-13T12:06:29.912Z,96.72
2023-02-13T12:11:51.741Z,97.03
2023-02-13T12:17:07.091Z,96.11
2023-02-13T12:22:20.970Z,96.72
2023-02-13T12:27:35.530Z,95.81
2023-02-13T12:33:03.431Z,96.88
2023-02-13T12:38:40.176Z,96.79
2023-02-13T12:44:17.172Z,96.00
2023-02-13T12:49:36.670Z,97.42
2023-02-13T12:55:02.437Z,98.57
2023-02-13T13:00:29.564Z,98.37
2023-02-13T13:05:50.701Z,96.83
2023-02-13T13:11:26.191Z,95.77
2023-02-13T13:16:38.174Z,94.84
2023-02-13T13:21:52.617Z,94.61
2023-02-13T13:26:57.593Z,95.14
2023-02-13T13:32:07.082Z,99.56
2023-02-13T13:37:50.111Z,99.07
2023-02-13T13:43:12.806Z,89.84
2023-02-13T13:48:40.424Z,91.99
2023-02-13T13:54:00.285Z,92.29
2023-02-13T13:59:01.721Z,93.91
2023-02-13T14:04:24.335Z,93.76
2023-02-13T14:09:43.158Z,94.40
2023-02-13T14:14:45.098Z,94.37
2023-02-13T14:19:52.742Z,94.48
2023-02-13T14:24:56.629Z,94.39
2023-02-13T14:29:59.413Z,94.40
2023-02-13T14:35:05.830Z,94.44
2023-02-13T14:40:11.538Z,94.88
2023-02-13T14:45:20.671Z,94.91
2023-02-13T14:50:28.691Z,95.03
2023-02-13T14:55:40.267Z,95.28
2023-02-13T15:00:49.602Z,94.98
2023-02-13T15:05:57.789Z,94.95
2023-02-13T15:10:59.431Z,95.04
2023-02-13T15:16:06.860Z,95.08
2023-02-13T15:21:16.207Z,94.70
2023-02-13T15:26:23.820Z,94.75
2023-02-13T15:31:25.484Z,95.02
2023-02-13T15:36:40.126Z,94.88
2023-02-13T15:41:45.906Z,94.98
2023-02-13T15:46:49.005Z,94.06
2023-02-13T15:51:51.064Z,95.31
2023-02-13T15:56:55.759Z,94.69
2023-02-13T16:01:58.902Z,94.75
2023-02-13T16:07:00.922Z,94.52
2023-02-13T16:12:06.279Z,95.11
2023-02-13T16:17:18.280Z,95.04
2023-02-13T16:22:45.273Z,94.93
2023-02-13T16:27:48.664Z,94.89
2023-02-13T16:32:50.139Z,94.74
2023-02-13T16:37:56.200Z,94.89
2023-02-13T16:43:35.167Z,94.61
2023-02-13T16:48:37.064Z,94.58
2023-02-13T16:53:38.938Z,94.82
2023-02-13T16:58:41.071Z,94.61
2023-02-13T17:03:42.525Z,94.77
2023-02-13T17:08:44.038Z,94.20
2023-02-13T17:13:45.437Z,94.15
2023-02-13T17:18:46.843Z,94.31
2023-02-13T17:23:48.275Z,94.26
2023-02-13T17:28:49.691Z,94.26
2023-02-13T17:33:51.420Z,94.26
2023-02-13T17:38:53.485Z,94.15
2023-02-13T17:43:55.012Z,93.93
2023-02-13T17:48:56.424Z,94.27
2023-02-13T17:53:58.086Z,94.32
2023-02-13T17:58:59.513Z,94.23
2023-02-13T18:04:01.110Z,94.38
2023-02-13T18:09:02.703Z,94.15
2023-02-13T18:14:04.178Z,94.50
2023-02-13T18:19:05.827Z,94.00
2023-02-13T18:24:08.641Z,94.25
2023-02-13T18:29:10.061Z,94.39
2023-02-13T18:34:11.618Z,94.04
2023-02-13T18:39:13.465Z,94.33
2023-02-13T18:44:26.984Z,94.00
2023-02-13T18:49:29.440Z,94.17
2023-02-13T18:54:31.032Z,94.78
2023-02-13T18:59:32.480Z,94.27
2023-02-13T19:04:35.685Z,93.89
2023-02-13T19:09:40.148Z,94.51
2023-02-13T19:14:41.602Z,94.25
2023-02-13T19:19:46.347Z,94.12
2023-02-13T19:24:47.833Z,93.82
2023-02-13T19:29:49.328Z,94.08
2023-02-13T19:34:50.810Z,94.35
2023-02-13T19:39:53.396Z,94.41
2023-02-13T19:44:54.962Z,94.22
2023-02-13T19:49:56.385Z,94.40
2023-02-13T19:54:57.922Z,94.66
2023-02-13T20:00:01.772Z,94.73
2023-02-13T20:05:13.777Z,94.87
2023-02-13T20:10:15.349Z,94.69
2023-02-13T20:15:16.873Z,94.35
2023-02-13T20:20:18.616Z,94.86
2023-02-13T20:25:21.962Z,94.65
2023-02-13T20:30:23.529Z,94.68
2023-02-13T20:35:25.051Z,94.84
2023-02-13T20:40:26.701Z,94.96
2023-02-13T20:45:28.192Z,94.77
2023-02-13T20:50:29.659Z,94.58
2023-02-13T20:55:31.209Z,94.26
2023-02-13T21:00:32.719Z,94.70
2023-02-13T21:05:34.197Z,94.65
2023-02-13T21:10:37.914Z,94.09
2023-02-13T21:15:39.432Z,94.36
2023-02-13T21:20:40.856Z,93.87
2023-02-13T21:25:42.435Z,93.97
2023-02-13T21:30:43.892Z,94.04
2023-02-13T21:35:45.362Z,93.86
2023-02-13T21:40:46.778Z,93.95
2023-02-13T21:45:48.439Z,94.09
2023-02-13T21:50:50.085Z,93.96
2023-02-13T21:55:51.487Z,94.34
2023-02-13T22:00:52.920Z,94.50
2023-02-13T22:05:54.338Z,94.60
2023-02-13T22:10:58.029Z,93.84
2023-02-13T22:16:01.708Z,94.09
2023-02-13T22:21:16.204Z,93.96
2023-02-13T22:26:20.433Z,94.37
2023-02-13T22:31:25.413Z,94.36
2023-02-13T22:36:27.378Z,94.18
2023-02-13T22:41:28.930Z,94.02
2023-02-13T22:46:32.320Z,94.29
2023-02-13T22:51:35.978Z,93.70
2023-02-13T22:56:37.400Z,93.99
2023-02-13T23:01:39.717Z,93.91
2023-02-13T23:06:41.267Z,93.90
2023-02-13T23:12:01.122Z,94.08
2023-02-13T23:17:21.036Z,94.14
2023-02-13T23:22:22.587Z,93.73
2023-02-13T23:27:23.982Z,93.44
2023-02-13T23:32:25.495Z,93.55
2023-02-13T23:37:26.908Z,93.15
2023-02-13T23:42:28.786Z,92.93
2023-02-13T23:47:30.189Z,93.06
2023-02-13T23:52:31.620Z,93.64
2023-02-13T23:57:33.041Z,93.60
